createdAt,value
2018-07-22T00:01:12.985Z,8.53
2018-07-22T00:03:42.927Z,9.45
2018-07-22T00:06:12.976Z,9.73
2018-07-22T00:08:43.066Z,9.83
2018-07-22T00:11:13.003Z,10.30
2018-07-22T00:13:43.060Z,10.00
2018-07-22T00:16:12.928Z,9.85
2018-07-22T00:18:43.046Z,9.30
2018-07-22T00:21:12.976Z,9.83
2018-07-22T00:23:42.967Z,9.48
2018-07-22T00:26:12.965Z,9.73
2018-07-22T00:28:43.025Z,10.00
2018-07-22T00:31:13.059Z,10.13
2018-07-22T00:33:43.164Z,10.60
2018-07-22T00:36:13.089Z,10.53
2018-07-22T00:38:43.507Z,10.93
2018-07-22T00:41:13.046Z,11.50
2018-07-22T00:43:43.059Z,10.43
2018-07-22T00:46:13.039Z,10.67
2018-07-22T00:48:43.061Z,10.85
2018-07-22T00:51:13.011Z,10.85
2018-07-22T00:53:43.035Z,11.22
2018-07-22T00:56:13.054Z,10.60
2018-07-22T00:58:43.143Z,11.30
2018-07-22T01:01:13.056Z,10.53
2018-07-22T01:03:43.108Z,10.05
2018-07-22T01:06:12.917Z,10.70
2018-07-22T01:08:42.970Z,9.57
2018-07-22T01:11:12.842Z,10.28
2018-07-22T01:13:42.918Z,10.25
2018-07-22T01:16:16.546Z,10.53
2018-07-22T01:18:45.977Z,8.90
2018-07-22T01:21:15.392Z,9.00
2018-07-22T01:23:45.151Z,9.33
2018-07-22T01:26:14.485Z,9.30
2018-07-22T01:28:43.835Z,9.60
2018-07-22T01:31:13.186Z,8.85
2018-07-22T01:33:43.180Z,8.68
2018-07-22T01:36:13.099Z,8.87
2018-07-22T01:38:43.192Z,8.35
2018-07-22T01:41:13.270Z,9.28
2018-07-22T01:43:42.999Z,9.23
2018-07-22T01:46:13.001Z,9.43
2018-07-22T01:48:42.897Z,9.30
2018-07-22T01:51:13.098Z,8.93
2018-07-22T01:53:43.222Z,9.88
2018-07-22T01:56:13.232Z,9.98
2018-07-22T01:58:42.939Z,9.20
2018-07-22T02:01:13.155Z,9.30
2018-07-22T02:03:43.547Z,9.58
2018-07-22T02:06:13.194Z,9.60
2018-07-22T02:08:43.618Z,9.30
2018-07-22T02:11:13.205Z,9.50
2018-07-22T02:13:43.205Z,10.00
2018-07-22T02:16:13.053Z,9.90
2018-07-22T02:18:43.264Z,9.70
2018-07-22T02:21:13.305Z,9.53
2018-07-22T02:23:43.353Z,9.85
2018-07-22T02:26:13.350Z,9.35
2018-07-22T02:28:43.376Z,9.65
2018-07-22T02:31:13.354Z,9.48
2018-07-22T02:33:43.317Z,9.68
2018-07-22T02:36:13.302Z,9.23
2018-07-22T02:38:43.381Z,9.40
2018-07-22T02:41:13.365Z,9.63
2018-07-22T02:43:43.253Z,9.60
2018-07-22T02:46:13.394Z,9.80
2018-07-22T02:48:43.469Z,9.78
2018-07-22T02:51:13.374Z,9.83
2018-07-22T02:53:43.531Z,9.98
2018-07-22T02:56:13.429Z,9.70
2018-07-22T02:58:43.381Z,9.73
2018-07-22T03:01:13.459Z,10.05
2018-07-22T03:03:43.417Z,10.25
2018-07-22T03:06:13.493Z,10.50
2018-07-22T03:08:43.408Z,10.45
2018-07-22T03:11:13.397Z,10.48
2018-07-22T03:13:43.438Z,10.38
2018-07-22T03:16:13.389Z,10.30
2018-07-22T03:18:43.343Z,9.77
2018-07-22T03:21:13.489Z,9.50
2018-07-22T03:23:43.403Z,8.98
2018-07-22T03:26:13.704Z,8.70
2018-07-22T03:28:43.482Z,9.30
2018-07-22T03:31:13.466Z,9.50
2018-07-22T03:33:43.458Z,9.75
2018-07-22T03:36:13.519Z,9.93
2018-07-22T03:38:43.161Z,10.20
2018-07-22T03:41:13.297Z,10.73
2018-07-22T03:43:43.474Z,10.40
2018-07-22T03:46:13.469Z,10.73
2018-07-22T03:48:43.517Z,10.93
2018-07-22T03:51:13.566Z,11.28
2018-07-22T03:53:43.610Z,11.53
2018-07-22T03:56:13.416Z,11.43
2018-07-22T03:58:43.589Z,11.68
2018-07-22T04:01:13.476Z,12.10
2018-07-22T04:03:43.480Z,12.95
2018-07-22T04:06:13.529Z,12.28
2018-07-22T04:08:43.791Z,12.58
2018-07-22T04:11:13.533Z,13.95
2018-07-22T04:13:43.492Z,12.50
2018-07-22T04:16:13.500Z,12.93
2018-07-22T04:18:52.477Z,13.32
2018-07-22T04:21:23.690Z,13.32
2018-07-22T04:23:53.264Z,12.87
2018-07-22T04:26:22.765Z,12.93
2018-07-22T04:28:52.250Z,12.53
2018-07-22T04:31:21.911Z,13.20
2018-07-22T04:33:51.314Z,13.03
2018-07-22T04:36:20.633Z,13.60
2018-07-22T04:38:49.945Z,12.93
2018-07-22T04:41:19.067Z,14.60
2018-07-22T04:43:48.405Z,13.60
2018-07-22T04:46:17.955Z,13.35
2018-07-22T04:48:47.853Z,13.47
2018-07-22T04:51:17.199Z,13.87
2018-07-22T04:53:46.570Z,15.43
2018-07-22T04:56:15.901Z,14.47
2018-07-22T04:58:45.198Z,15.57
2018-07-22T05:01:14.248Z,15.48
2018-07-22T05:03:43.534Z,14.20
2018-07-22T05:06:13.655Z,15.28
2018-07-22T05:08:43.671Z,13.83
2018-07-22T05:11:13.699Z,14.47
2018-07-22T05:13:43.664Z,15.35
2018-07-22T05:16:13.754Z,15.43
2018-07-22T05:18:43.340Z,14.80
2018-07-22T05:21:13.534Z,15.10
2018-07-22T05:23:43.734Z,15.55
2018-07-22T05:26:13.684Z,16.40
2018-07-22T05:28:43.785Z,16.02
2018-07-22T05:31:13.733Z,16.35
2018-07-22T05:33:43.685Z,15.18
2018-07-22T05:36:13.766Z,15.48
2018-07-22T05:38:43.654Z,16.67
2018-07-22T05:41:13.761Z,15.40
2018-07-22T05:43:43.918Z,16.93
2018-07-22T05:46:13.877Z,15.78
2018-07-22T05:48:43.762Z,16.12
2018-07-22T05:51:13.762Z,16.30
2018-07-22T05:53:43.800Z,16.00
2018-07-22T05:56:14.058Z,14.28
2018-07-22T05:58:43.843Z,15.15
2018-07-22T06:01:13.820Z,13.43
2018-07-22T06:03:43.778Z,13.55
2018-07-22T06:06:13.806Z,14.10
2018-07-22T06:08:43.823Z,13.65
2018-07-22T06:11:13.805Z,14.00
2018-07-22T06:13:44.166Z,13.53
2018-07-22T06:16:13.739Z,14.75
2018-07-22T06:18:43.859Z,14.10
2018-07-22T06:21:13.789Z,14.63
2018-07-22T06:23:43.900Z,14.28
2018-07-22T06:26:13.825Z,13.80
2018-07-22T06:28:43.746Z,13.10
2018-07-22T06:31:13.858Z,14.05
2018-07-22T06:33:43.941Z,14.80
2018-07-22T06:36:13.838Z,13.65
2018-07-22T06:38:43.794Z,14.13
2018-07-22T06:41:14.027Z,13.20
2018-07-22T06:43:43.578Z,13.58
2018-07-22T06:46:13.794Z,13.00
2018-07-22T06:48:43.950Z,11.60
2018-07-22T06:51:13.972Z,11.40
2018-07-22T06:53:43.530Z,12.50
2018-07-22T06:56:13.697Z,11.37
2018-07-22T06:58:44.057Z,12.43
2018-07-22T07:01:13.893Z,12.80
2018-07-22T07:03:43.635Z,11.00
2018-07-22T07:06:13.793Z,10.38
2018-07-22T07:08:43.995Z,9.60
2018-07-22T07:11:13.931Z,10.93
2018-07-22T07:13:43.645Z,9.10
2018-07-22T07:16:13.793Z,9.87
2018-07-22T07:18:44.022Z,10.30
2018-07-22T07:21:14.083Z,8.63
2018-07-22T07:23:43.619Z,9.60
2018-07-22T07:26:13.881Z,9.53
2018-07-22T07:28:43.920Z,8.40
2018-07-22T07:31:13.911Z,9.13
2018-07-22T07:33:43.707Z,9.95
2018-07-22T07:36:13.767Z,8.50
2018-07-22T07:38:44.000Z,8.13
2018-07-22T07:41:14.028Z,9.68
2018-07-22T07:43:44.151Z,8.25
2018-07-22T07:46:13.941Z,8.43
2018-07-22T07:48:43.854Z,9.10
2018-07-22T07:51:13.854Z,8.17
2018-07-22T07:53:43.983Z,8.80
2018-07-22T07:56:14.038Z,8.58
2018-07-22T07:58:44.197Z,8.65
2018-07-22T08:01:14.006Z,7.40
2018-07-22T08:03:43.893Z,7.70
2018-07-22T08:06:13.790Z,9.30
2018-07-22T08:08:43.958Z,8.80
2018-07-22T08:11:14.000Z,8.38
2018-07-22T08:13:44.277Z,8.60
2018-07-22T08:16:13.834Z,8.00
2018-07-22T08:18:44.052Z,7.80
2018-07-22T08:21:14.097Z,10.05
2018-07-22T08:23:44.093Z,8.37
2018-07-22T08:26:14.286Z,8.05
2018-07-22T08:29:38.936Z,6.85
2018-07-22T08:32:08.331Z,6.57
2018-07-22T08:34:37.730Z,6.60
2018-07-22T08:37:07.147Z,6.17
2018-07-22T08:39:36.527Z,5.37
2018-07-22T08:42:05.974Z,5.97
2018-07-22T08:44:35.328Z,6.00
2018-07-22T08:47:04.670Z,5.70
2018-07-22T08:49:34.006Z,5.60
2018-07-22T08:52:03.378Z,5.87
2018-07-22T08:54:32.741Z,5.07
2018-07-22T08:57:02.119Z,5.45
2018-07-22T08:59:31.514Z,5.17
2018-07-22T09:02:00.858Z,4.80
2018-07-22T09:04:29.846Z,5.13
2018-07-22T09:06:59.095Z,5.00
2018-07-22T09:09:28.378Z,4.90
2018-07-22T09:11:57.637Z,5.00
2018-07-22T09:14:26.989Z,4.67
2018-07-22T09:16:56.367Z,4.23
2018-07-22T09:19:25.601Z,4.53
2018-07-22T09:21:54.879Z,4.53
2018-07-22T09:24:24.194Z,4.50
2018-07-22T09:26:53.517Z,4.70
2018-07-22T09:29:22.897Z,4.30
2018-07-22T09:31:52.020Z,4.25
2018-07-22T09:34:21.356Z,4.40
2018-07-22T09:36:50.686Z,4.33
2018-07-22T09:39:20.051Z,4.28
2018-07-22T09:41:49.440Z,4.17
2018-07-22T09:44:18.808Z,4.40
2018-07-22T10:10:57.277Z,3.10
2018-07-22T10:13:26.635Z,3.27
2018-07-22T10:15:55.995Z,3.45
2018-07-22T10:18:25.324Z,3.65
2018-07-22T10:20:54.659Z,3.58
2018-07-22T10:23:24.046Z,3.70
2018-07-22T10:25:53.459Z,3.37
2018-07-22T10:28:28.013Z,3.50
2018-07-22T10:30:57.317Z,2.90
2018-07-22T10:33:26.868Z,3.00
2018-07-22T10:35:56.342Z,3.08
2018-07-22T10:38:25.683Z,2.77
2018-07-22T10:40:54.988Z,2.87
2018-07-22T10:43:24.424Z,2.87
2018-07-22T10:45:53.743Z,2.50
2018-07-22T10:48:23.066Z,2.77
2018-07-22T10:50:52.441Z,2.75
2018-07-22T10:53:21.934Z,2.30
2018-07-22T10:55:51.085Z,2.55
2018-07-22T10:58:20.381Z,2.30
2018-07-22T11:00:49.669Z,2.37
2018-07-22T11:03:19.071Z,2.33
2018-07-22T11:05:48.362Z,2.33
2018-07-22T11:08:17.872Z,2.77
2018-07-22T11:10:47.179Z,2.33
2018-07-22T11:13:16.490Z,2.43
2018-07-22T11:15:45.844Z,2.47
2018-07-22T11:18:15.319Z,2.57
2018-07-22T11:20:44.684Z,2.33
2018-07-22T11:23:14.477Z,2.75
2018-07-22T11:25:44.350Z,2.60
2018-07-22T11:28:14.461Z,2.65
2018-07-22T11:30:44.420Z,2.37
2018-07-22T11:33:14.410Z,2.70
2018-07-22T11:35:44.428Z,2.72
2018-07-22T11:38:14.449Z,2.80
2018-07-22T11:40:44.518Z,2.62
2018-07-22T11:43:14.400Z,2.73
2018-07-22T11:45:44.852Z,2.73
2018-07-22T11:48:14.443Z,2.67
2018-07-22T11:50:44.484Z,3.00
2018-07-22T11:53:15.473Z,2.92
2018-07-22T11:55:44.815Z,3.10
2018-07-22T11:58:14.436Z,2.87
2018-07-22T12:00:47.963Z,2.75
2018-07-22T12:03:19.127Z,2.97
2018-07-22T12:05:48.663Z,2.55
2018-07-22T12:08:17.994Z,2.80
2018-07-22T12:10:47.537Z,2.90
2018-07-22T12:13:16.926Z,3.07
2018-07-22T12:15:46.244Z,2.63
2018-07-22T12:18:15.598Z,2.80
2018-07-22T12:20:44.971Z,2.90
2018-07-22T12:23:14.701Z,2.50
2018-07-22T12:25:44.502Z,3.20
2018-07-22T12:28:14.308Z,3.30
2018-07-22T12:30:44.368Z,3.30
2018-07-22T12:33:14.345Z,3.45
2018-07-22T12:35:44.473Z,3.42
2018-07-22T12:38:14.995Z,3.30
2018-07-22T12:40:44.317Z,3.22
2018-07-22T12:43:14.386Z,3.10
2018-07-22T12:45:44.607Z,3.00
2018-07-22T12:48:14.781Z,3.62
2018-07-22T12:50:44.828Z,3.75
2018-07-22T12:53:14.518Z,3.22
2018-07-22T12:55:44.332Z,3.40
2018-07-22T12:58:14.429Z,3.60
2018-07-22T13:00:44.599Z,3.52
2018-07-22T13:03:14.851Z,3.12
2018-07-22T13:05:44.713Z,3.27
2018-07-22T13:08:15.045Z,3.02
2018-07-22T13:10:44.648Z,3.02
2018-07-22T13:13:14.686Z,3.08
2018-07-22T13:15:44.679Z,2.95
2018-07-22T13:18:14.710Z,3.17
2018-07-22T13:20:44.791Z,2.92
2018-07-22T13:23:14.360Z,3.30
2018-07-22T13:25:44.456Z,2.90
2018-07-22T13:28:14.683Z,3.10
2018-07-22T13:30:44.698Z,3.10
2018-07-22T13:33:14.722Z,2.90
2018-07-22T13:35:45.435Z,2.90
2018-07-22T13:38:14.815Z,3.00
2018-07-22T13:40:44.750Z,2.83
2018-07-22T13:43:14.672Z,4.03
2018-07-22T13:45:46.710Z,3.40
2018-07-22T13:48:18.854Z,3.05
2018-07-22T13:50:49.404Z,3.23
2018-07-22T13:53:18.699Z,3.07
2018-07-22T13:55:48.592Z,3.30
2018-07-22T13:58:17.935Z,3.40
2018-07-22T14:00:47.318Z,2.80
2018-07-22T14:03:16.930Z,3.20
2018-07-22T14:05:46.988Z,3.50
2018-07-22T14:08:18.077Z,3.27
2018-07-22T14:10:47.385Z,3.00
2018-07-22T14:13:18.674Z,2.60
2018-07-22T14:15:50.451Z,2.97
2018-07-22T14:18:21.269Z,2.53
2018-07-22T14:20:53.134Z,4.80
2018-07-22T14:23:24.030Z,3.60
2018-07-22T14:25:54.897Z,2.23
2018-07-22T14:28:24.378Z,2.20
2018-07-22T14:30:54.250Z,1.91
2018-07-22T14:33:23.698Z,2.08
2018-07-22T14:35:53.779Z,2.00
2018-07-22T14:38:23.120Z,2.00
2018-07-22T14:40:52.527Z,1.83
2018-07-22T14:43:21.502Z,2.12
2018-07-22T14:45:50.838Z,2.17
2018-07-22T14:48:20.168Z,1.93
2018-07-22T14:50:49.461Z,1.98
2018-07-22T14:55:48.130Z,2.30
2018-07-22T14:58:17.642Z,1.90
2018-07-22T15:00:47.021Z,2.30
2018-07-22T15:03:16.584Z,2.10
2018-07-22T15:05:45.916Z,2.03
2018-07-22T15:08:15.242Z,1.80
2018-07-22T15:10:44.935Z,2.00
2018-07-22T15:13:14.938Z,1.70
2018-07-22T15:15:44.941Z,1.95
2018-07-22T15:18:14.925Z,1.80
2018-07-22T15:20:44.938Z,1.60
2018-07-22T15:23:14.922Z,1.60
2018-07-22T15:25:44.943Z,1.80
2018-07-22T15:28:14.925Z,1.62
2018-07-22T15:30:44.913Z,1.62
2018-07-22T15:33:14.923Z,1.60
2018-07-22T15:35:44.992Z,1.62
2018-07-22T15:38:14.970Z,1.45
2018-07-22T15:40:45.020Z,1.72
2018-07-22T15:43:14.952Z,1.70
2018-07-22T15:45:44.901Z,1.57
2018-07-22T15:48:14.966Z,1.57
2018-07-22T15:50:51.439Z,1.52
2018-07-22T15:53:20.816Z,1.50
2018-07-22T15:55:50.232Z,1.60
2018-07-22T15:58:19.584Z,1.47
2018-07-22T16:00:48.989Z,1.50
2018-07-22T16:03:18.389Z,1.70
2018-07-22T16:05:47.780Z,1.63
2018-07-22T16:08:17.125Z,1.87
2018-07-22T16:10:46.530Z,1.60
2018-07-22T16:13:15.876Z,1.77
2018-07-22T16:15:45.213Z,1.77
2018-07-22T16:18:15.106Z,1.67
2018-07-22T16:20:44.757Z,2.00
2018-07-22T16:23:14.980Z,1.80
2018-07-22T16:25:44.726Z,1.70
2018-07-22T16:28:14.910Z,1.70
2018-07-22T16:30:45.096Z,1.95
2018-07-22T16:33:15.114Z,1.85
2018-07-22T16:35:45.309Z,1.82
2018-07-22T16:38:15.083Z,1.50
2018-07-22T16:40:45.213Z,1.80
2018-07-22T16:43:15.113Z,1.60
2018-07-22T16:45:44.793Z,1.82
2018-07-22T16:48:15.001Z,1.60
2018-07-22T16:50:45.170Z,1.50
2018-07-22T16:53:15.186Z,1.57
2018-07-22T16:55:45.170Z,1.77
2018-07-22T16:58:15.161Z,1.77
2018-07-22T17:00:45.109Z,1.70
2018-07-22T17:03:15.144Z,2.07
2018-07-22T17:05:45.186Z,1.70
2018-07-22T17:08:15.119Z,1.70
2018-07-22T17:10:46.546Z,1.70
2018-07-22T17:13:16.304Z,1.80
2018-07-22T17:15:45.646Z,1.70
2018-07-22T17:18:15.155Z,1.40
2018-07-22T17:20:45.441Z,1.60
2018-07-22T17:23:15.280Z,1.55
2018-07-22T17:25:45.161Z,2.00
2018-07-22T17:28:15.848Z,1.80
2018-07-22T17:30:45.293Z,1.87
2018-07-22T17:33:15.173Z,2.00
2018-07-22T17:35:45.110Z,2.00
2018-07-22T17:38:15.210Z,1.90
2018-07-22T17:40:45.193Z,1.87
2018-07-22T17:43:15.258Z,2.20
2018-07-22T17:45:45.128Z,2.20
2018-07-22T17:48:15.314Z,2.30
2018-07-22T17:50:45.195Z,2.40
2018-07-22T17:53:15.235Z,2.50
2018-07-22T17:55:45.221Z,2.50
2018-07-22T17:58:15.270Z,2.20
2018-07-22T18:00:44.925Z,1.82
2018-07-22T18:03:28.888Z,1.80
2018-07-22T18:05:58.221Z,2.20
2018-07-22T18:08:27.551Z,2.30
2018-07-22T18:10:56.896Z,2.40
2018-07-22T18:13:26.249Z,1.97
2018-07-22T18:15:55.854Z,1.87
2018-07-22T18:18:25.234Z,2.30
2018-07-22T18:20:54.622Z,2.37
2018-07-22T18:23:24.085Z,2.17
2018-07-22T18:25:53.415Z,2.10
2018-07-22T18:28:22.765Z,2.07
2018-07-22T18:30:52.099Z,2.10
2018-07-22T18:33:21.434Z,1.93
2018-07-22T18:35:50.784Z,1.73
2018-07-22T18:38:20.255Z,1.90
2018-07-22T18:40:49.689Z,1.82
2018-07-22T18:43:19.017Z,2.07
2018-07-22T18:45:48.398Z,2.10
2018-07-22T18:48:17.780Z,2.00
2018-07-22T18:50:47.144Z,2.03
2018-07-22T18:53:16.495Z,2.63
2018-07-22T18:55:45.838Z,2.10
2018-07-22T18:58:15.441Z,1.90
2018-07-22T19:00:45.535Z,2.15
2018-07-22T19:03:15.562Z,1.90
2018-07-22T19:05:45.506Z,1.80
2018-07-22T19:08:15.380Z,1.90
2018-07-22T19:10:45.457Z,1.98
2018-07-22T19:13:15.509Z,1.70
2018-07-22T19:15:45.217Z,2.05
2018-07-22T19:18:15.547Z,1.70
2018-07-22T19:20:45.558Z,2.00
2018-07-22T19:23:15.450Z,1.98
2018-07-22T19:25:45.757Z,1.98
2018-07-22T19:28:15.884Z,2.00
2018-07-22T19:30:45.519Z,1.95
2018-07-22T19:33:15.569Z,1.87
2018-07-22T19:35:45.554Z,2.47
2018-07-22T19:38:15.490Z,2.17
2018-07-22T19:40:45.530Z,2.08
2018-07-22T19:43:15.511Z,2.08
2018-07-22T19:45:45.477Z,2.07
2018-07-22T19:48:15.605Z,2.17
2018-07-22T19:50:45.581Z,2.40
2018-07-22T19:53:15.554Z,2.20
2018-07-22T19:55:45.240Z,2.12
2018-07-22T19:58:15.335Z,2.10
2018-07-22T20:00:45.643Z,2.45
2018-07-22T20:03:15.585Z,2.17
2018-07-22T20:05:45.612Z,2.37
2018-07-22T20:08:15.653Z,2.00
2018-07-22T20:10:45.693Z,2.12
2018-07-22T20:13:15.586Z,2.40
2018-07-22T20:15:45.565Z,2.33
2018-07-22T20:18:15.760Z,2.80
2018-07-22T20:20:45.643Z,2.20
2018-07-22T20:23:15.650Z,2.45
2018-07-22T20:25:45.598Z,2.80
2018-07-22T20:28:15.592Z,2.37
2018-07-22T20:30:45.597Z,2.60
2018-07-22T20:33:15.660Z,2.70
2018-07-22T20:35:45.580Z,3.00
2018-07-22T20:38:15.735Z,2.40
2018-07-22T20:40:45.682Z,2.98
2018-07-22T20:43:15.577Z,2.40
2018-07-22T20:45:45.712Z,2.87
2018-07-22T20:48:15.626Z,3.12
2018-07-22T20:50:45.651Z,2.70
2018-07-22T20:53:15.673Z,2.80
2018-07-22T20:55:45.593Z,2.90
2018-07-22T20:58:15.819Z,2.98
2018-07-22T21:00:45.651Z,2.95
2018-07-22T21:03:15.644Z,3.98
2018-07-22T21:05:45.663Z,3.22
2018-07-22T21:08:15.701Z,3.10
2018-07-22T21:10:45.707Z,3.77
2018-07-22T21:13:20.494Z,3.42
2018-07-22T21:15:50.375Z,3.52
2018-07-22T21:18:19.737Z,3.62
2018-07-22T21:20:49.110Z,3.93
2018-07-22T21:23:18.431Z,4.00
2018-07-22T21:25:47.790Z,4.10
2018-07-22T21:28:17.085Z,3.80
2018-07-22T21:30:46.391Z,3.97
2018-07-22T21:33:15.732Z,3.95
2018-07-22T21:35:45.754Z,4.08
2018-07-22T21:38:15.738Z,4.03
2018-07-22T21:40:45.774Z,3.90
2018-07-22T21:43:15.800Z,4.53
2018-07-22T21:45:45.824Z,3.90
2018-07-22T21:48:15.784Z,3.87
2018-07-22T21:50:45.797Z,3.60
2018-07-22T21:53:15.791Z,3.55
2018-07-22T21:55:45.744Z,3.83
2018-07-22T21:58:15.749Z,3.70
2018-07-22T22:00:45.914Z,3.33
2018-07-22T22:03:15.761Z,3.77
2018-07-22T22:05:45.751Z,3.70
2018-07-22T22:08:15.824Z,4.22
2018-07-22T22:10:45.859Z,4.37
2018-07-22T22:13:15.888Z,4.10
2018-07-22T22:15:45.877Z,4.45
2018-07-22T22:18:15.939Z,4.40
2018-07-22T22:20:45.820Z,4.20
2018-07-22T22:23:15.799Z,4.20
2018-07-22T22:25:45.881Z,4.33
2018-07-22T22:28:15.788Z,4.80
2018-07-22T22:30:45.568Z,4.67
2018-07-22T22:33:15.738Z,4.60
2018-07-22T22:35:45.806Z,4.70
2018-07-22T22:38:15.874Z,4.80
2018-07-22T22:40:45.794Z,4.27
2018-07-22T22:43:15.930Z,4.78
2018-07-22T22:45:45.581Z,4.40
2018-07-22T22:48:15.816Z,4.50
2018-07-22T22:50:45.813Z,4.33
2018-07-22T22:53:15.905Z,5.10
2018-07-22T22:55:45.878Z,4.42
2018-07-22T22:58:32.796Z,5.08
2018-07-22T23:01:08.451Z,4.43
2018-07-22T23:03:37.814Z,4.40
2018-07-22T23:06:07.110Z,4.13
2018-07-22T23:08:36.414Z,3.60
2018-07-22T23:11:05.798Z,3.50
2018-07-22T23:13:35.169Z,2.73
2018-07-22T23:16:04.506Z,2.90
2018-07-22T23:18:33.837Z,3.60
2018-07-22T23:21:03.247Z,3.37
2018-07-22T23:23:32.629Z,3.30
2018-07-22T23:26:01.987Z,4.27
2018-07-22T23:28:31.330Z,4.53
2018-07-22T23:31:00.666Z,3.57
2018-07-22T23:33:30.132Z,3.83
2018-07-22T23:35:59.461Z,3.80
2018-07-22T23:38:28.852Z,4.07
2018-07-22T23:40:58.323Z,4.37
2018-07-22T23:43:27.671Z,4.33
2018-07-22T23:45:57.042Z,4.73
2018-07-22T23:48:26.396Z,4.13
2018-07-22T23:50:55.717Z,5.00
2018-07-22T23:53:25.282Z,5.07
2018-07-22T23:55:54.620Z,4.97
2018-07-22T23:58:24.079Z,4.92
